Latest Coastal Weather Observations for Warrnambool

IDV60701

Issued at 1:41 pm EDT Thursday 5 March 2015 (issued every 10 minutes, with the page automatically refreshed every 10 minutes)

About coastal observations | Map of coastal stations | Coastal observations for VIC | Marine services | Other Formats
Station Details ID: 090186 Name: WARRNAMBOOL AIRPORT NDB Lat: -38.29 Lon: 142.45 Height: 70.8 m
Data from the previous 72 hours. | See also: Recent months at Warrnambool
Date/Time
EDT
Temp

°C
Wind Pressure Rain
since 9am
mm
Weather Cloud Vis
km
Sea
Height
m
Swell
Dir
 
Speed
knots
Gust
knots
hPa Trend Height
m
Period
s
Dir
05/01:30pm 17.5 WSW 19 26 1019.0 - 0.0 - Partly cloudy 10 - - - -
05/01:00pm 16.5 SW 17 24 1019.3 - 0.0 - Partly cloudy 10 - - - -
05/12:30pm 16.4 SW 16 24 1019.5 - 0.0 - Partly cloudy 10 - - - -
05/12:00pm 15.6 SW 19 26 1019.9 - 0.0 - Partly cloudy 10 - - - -
05/11:30am 16.3 SW 21 27 1019.9 - 0.0 - Partly cloudy 10 - - - -
05/11:00am 15.5 SW 19 24 1019.5 - 0.0 - Partly cloudy 10 - - - -
05/10:30am 15.4 SSW 20 26 1019.1 - 0.0 - Partly cloudy 10 - - - -
05/10:00am 15.5 SSW 22 30 1018.8 - 0.0 - Partly cloudy 10 - - - -
05/09:30am 15.0 SSW 23 30 1018.6 - 0.0 - Partly cloudy 10 - - - -
05/09:00am 14.2 SSW 25 30 1018.3 - 1.4 - Mostly clear 10 - - - -
05/08:30am 13.2 SSW 21 27 1017.9 - 1.4 - Partly cloudy 10 - - - -
05/08:04am 13.2 SSW 21 31 1017.6 - 1.4 - Partly cloudy 10 - - - -
05/08:00am 13.0 SSW 19 26 1017.6 - 1.4 - Partly cloudy 10 - - - -
05/07:30am 12.5 SW 22 28 1017.2 - 1.4 - Partly cloudy 10 - - - -
05/07:02am 12.2 SW 21 31 1016.7 - 1.4 - Partly cloudy 10 - - - -
05/07:00am 12.2 SW 23 31 1016.7 - 1.4 - Partly cloudy 10 - - - -
05/06:30am 12.4 SW 21 29 1015.9 - 1.4 - Partly cloudy 10 - - - -
05/06:00am 12.2 SW 26 34 1015.8 - 1.4 - Partly cloudy 10 - - - -
05/05:30am 12.7 SW 23 33 1015.5 - 1.4 - Partly cloudy 10 - - - -
05/05:00am 12.5 SW 23 33 1015.5 - 1.4 - Partly cloudy 10 - - - -
05/04:41am 12.9 SW 24 34 1015.2 - 1.4 - Partly cloudy 10 - - - -
05/04:30am 12.4 SW 26 34 1015.1 - 1.4 - Partly cloudy 10 - - - -
05/04:22am 12.6 SW 27 37 1014.9 - 1.4 - Partly cloudy 10 - - - -
05/04:13am 11.9 WSW 19 37 1014.8 - 1.4 - Partly cloudy 10 - - - -
05/04:00am 11.8 WSW 21 28 1014.4 - 1.4 - Partly cloudy 10 - - - -
05/03:56am 12.1 SW 21 28 1014.4 - 1.4 - Partly cloudy 10 - - - -
05/03:30am 10.7 SW 25 38 1014.4 - 1.4 - Partly cloudy 10 - - - -
05/03:19am 12.8 SW 23 33 1013.9 - 1.4 - Partly cloudy 10 - - - -
05/03:00am 12.7 SW 28 35 1014.0 - 1.4 - Cloudy 10 - - - -
05/02:30am 13.1 SW 28 38 1013.6 - 1.4 - Partly cloudy 10 - - - -
05/02:00am 13.2 SW 25 39 1013.3 - 1.4 - Partly cloudy 10 - - - -
05/01:30am 13.7 WSW 28 40 1012.6 - 1.4 - Partly cloudy 10 - - - -
05/01:00am 14.8 WSW 24 35 1011.6 - 1.4 - Partly cloudy 10 - - - -
05/12:30am 13.8 WSW 21 32 1011.4 - 1.4 - Partly cloudy 10 - - - -
05/12:28am 13.8 WSW 21 32 1011.3 - 1.4 - Partly cloudy 10 - - - -
05/12:22am 13.5 WSW 22 32 1011.3 - 1.4 - Partly cloudy 10 - - - -
05/12:12am 13.8 WSW 20 27 1011.4 - 1.4 - Partly cloudy 7 - - - -
05/12:00am 14.2 W 21 30 1011.2 - 0.8 Showers Mostly clear 11 - - - -
 
Date/Time
EDT
Temp

°C
Wind Pressure Rain
since 9am
mm
Weather Cloud Vis
km
Sea
Height
m
Swell
Dir
 
Speed
knots
Gust
knots
hPa Trend Height
m
Period
s
Dir
04/11:58pm 14.2 W 20 30 1011.1 - 0.8 - Partly cloudy 10 - - - -
04/11:30pm 13.8 WNW 17 22 1010.8 - 0.6 - Partly cloudy 10 - - - -
04/11:25pm 13.8 WNW 15 22 1010.8 - 0.6 - Partly cloudy 10 - - - -
04/11:00pm 14.2 W 18 32 1011.3 - 0.6 - Partly cloudy 4 - - - -
04/10:58pm 14.6 WNW 16 29 1011.4 - 0.4 - Partly cloudy 4 - - - -
04/10:56pm 14.9 WNW 15 24 1011.3 - 0.4 - Partly cloudy 5 - - - -
04/10:30pm 15.1 NW 14 19 1010.5 - 0.0 - Partly cloudy 10 - - - -
04/10:00pm 15.0 NW 15 19 1010.7 - 0.0 - Partly cloudy 10 - - - -
04/09:30pm 15.5 NW 15 22 1010.8 - 0.0 - Partly cloudy 10 - - - -
04/09:00pm 16.5 WNW 13 19 1010.8 - 0.0 Showers Cloudy 10 - - - -
04/08:30pm 16.9 W 16 25 1010.8 - 0.0 - Partly cloudy 10 - - - -
04/08:27pm 17.0 WNW 15 25 1010.9 - 0.0 - Partly cloudy 10 - - - -
04/08:00pm 17.4 WNW 13 18 1010.7 - 0.0 - Partly cloudy 10 - - - -
04/07:30pm 18.0 W 19 26 1010.9 - 0.0 - Partly cloudy 10 - - - -
04/07:00pm 19.0 W 23 31 1010.7 - 0.0 - Partly cloudy 10 - - - -
04/06:36pm 20.0 WNW 16 26 1010.6 - 0.0 - Partly cloudy 10 - - - -
04/06:30pm 20.0 W 15 21 1010.7 - 0.0 - Partly cloudy 10 - - - -
04/06:00pm 19.7 W 19 28 1010.9 - 0.0 - Cloudy 10 - - - -
04/05:38pm 20.5 W 18 28 1011.0 - 0.0 - Partly cloudy 10 - - - -
04/05:30pm 20.8 W 19 26 1011.1 - 0.0 - Partly cloudy 10 - - - -
04/05:12pm 21.1 W 19 29 1011.1 - 0.0 - Partly cloudy 10 - - - -
04/05:00pm 21.2 W 19 25 1011.3 - 0.0 - Partly cloudy 10 - - - -
04/04:30pm 21.1 W 19 26 1011.4 - 0.0 - Partly cloudy 10 - - - -
04/04:00pm 21.4 W 16 23 1011.8 - 0.0 - Partly cloudy 10 - - - -
04/03:30pm 19.5 W 17 22 1012.5 - 0.0 - Cloudy 10 - - - -
04/03:00pm 19.1 W 17 23 1012.7 - 0.0 Showers Cloudy 10 - - - -
04/02:30pm 19.1 W 14 21 1013.2 - 0.0 - Partly cloudy 10 - - - -
04/02:05pm 18.8 WNW 15 25 1013.1 - 0.0 - Cloudy 10 - - - -
04/02:00pm 19.6 NW 15 20 1013.1 - 0.0 - Partly cloudy 10 - - - -
04/01:30pm 18.6 WNW 14 22 1013.5 - 0.0 - Partly cloudy 10 - - - -
04/01:00pm 19.3 NW 12 21 1013.8 - 0.0 - Partly cloudy 10 - - - -
04/12:30pm 18.4 WNW 12 19 1014.4 - 0.0 - Partly cloudy 10 - - - -
04/12:00pm 16.4 W 15 19 1015.0 - 0.0 Showers Cloudy 10 - - - -
04/11:30am 17.4 NW 13 18 1014.9 - 0.0 - Partly cloudy 10 - - - -
04/11:00am 16.6 WNW 13 18 1015.3 - 0.0 - Partly cloudy 10 - - - -
04/10:30am 15.4 WNW 13 17 1015.5 - 0.0 - Partly cloudy 10 - - - -
04/10:00am 15.5 WNW 13 16 1015.6 - 0.0 - Partly cloudy 10 - - - -
04/09:30am 15.4 NW 8 13 1015.3 - 0.0 - Cloudy 10 - - - -
04/09:00am 14.5 NW 12 15 1015.2 - 0.0 - Cloudy 10 - - - -
04/08:30am 13.7 NW 9 11 1015.1 - 0.0 - Partly cloudy 10 - - - -
04/08:00am 13.1 NW 8 11 1014.7 - 0.0 - Cloudy 10 - - - -
04/07:30am 12.7 NW 9 11 1014.4 - 0.0 - Cloudy 10 - - - -
04/07:00am 12.7 NW 7 11 1014.4 - 0.0 - Partly cloudy 10 - - - -
04/06:30am 12.3 WNW 7 9 1014.6 - 0.0 - Cloudy 10 - - - -
04/06:00am 11.6 NW 8 10 1014.4 - 0.0 - Cloudy 10 - - - -
04/05:30am 11.4 NW 9 11 1014.7 - 0.0 - Cloudy 10 - - - -
04/05:00am 11.2 NW 10 12 1014.8 - 0.0 - Partly cloudy 10 - - - -
04/04:30am 11.7 NW 11 14 1014.9 - 0.0 - Partly cloudy 10 - - - -
04/04:00am 11.4 NW 10 12 1015.0 - 0.0 - Partly cloudy 10 - - - -
04/03:30am 11.3 NW 9 12 1015.2 - 0.0 - Partly cloudy 10 - - - -
04/03:00am 10.2 NW 7 9 1015.6 - 0.0 - - 10 - - - -
04/02:30am 10.0 NW 7 9 1016.1 - 0.0 - - 10 - - - -
04/02:00am 11.0 NW 8 10 1016.1 - 0.0 - - 10 - - - -
04/01:30am 10.9 NW 8 10 1016.4 - 0.0 - - 10 - - - -
04/01:00am 9.9 NW 6 8 1016.5 - 0.0 - - 10 - - - -
04/12:30am 10.4 NNW 6 7 1017.0 - 0.0 - Partly cloudy 10 - - - -
04/12:00am 9.6 NNW 6 7 1017.2 - 0.0 - - 10 - - - -
 
Date/Time
EDT
Temp

°C
Wind Pressure Rain
since 9am
mm
Weather Cloud Vis
km
Sea
Height
m
Swell
Dir
 
Speed
knots
Gust
knots
hPa Trend Height
m
Period
s
Dir
03/11:30pm 9.4 NW 6 6 1017.4 - 0.0 - - 10 - - - -
03/11:00pm 11.1 NW 5 7 1017.6 - 0.0 - - 10 - - - -
03/10:30pm 11.9 WNW 5 6 1017.8 - 0.0 - - 10 - - - -
03/10:00pm 11.4 WSW 6 7 1017.8 - 0.0 - Partly cloudy 10 - - - -
03/09:30pm 11.8 WSW 6 8 1017.5 - 0.0 - - 10 - - - -
03/09:00pm 12.5 WSW 5 7 1017.3 - 0.0 - - 10 - - - -
03/08:30pm 13.5 SW 6 7 1017.1 - 0.0 - - 10 - - - -
03/08:00pm 15.3 SW 7 9 1016.8 - 0.0 - - 10 - - - -
03/07:30pm 16.7 SW 11 12 1016.6 - 0.0 - - 10 - - - -
03/07:00pm 17.4 SSW 11 14 1016.6 - 0.0 - - 10 - - - -
03/06:30pm 17.7 SSW 12 15 1016.6 - 0.0 - - 10 - - - -
03/06:00pm 18.5 SSW 12 17 1016.4 - 0.0 - - 10 - - - -
03/05:30pm 18.9 SSW 12 17 1016.4 - 0.0 - - 10 - - - -
03/05:00pm 19.3 SSW 13 18 1016.5 - 0.0 - - 10 - - - -
03/04:30pm 19.3 SSW 13 17 1016.6 - 0.0 - - 10 - - - -
03/04:00pm 20.1 SSW 14 19 1016.8 - 0.0 - - 10 - - - -
03/03:30pm 20.6 SSW 12 18 1016.9 - 0.0 - - 10 - - - -
03/03:00pm 20.2 SSW 13 18 1017.3 - 0.0 - - 10 - - - -
03/02:30pm 19.9 SSW 11 15 1017.4 - 0.0 - - 10 - - - -
03/02:00pm 19.9 SSW 13 18 1017.7 - 0.0 - - 10 - - - -
03/01:30pm 20.0 SSW 13 19 1017.9 - 0.0 - Partly cloudy 10 - - - -
03/01:00pm 19.6 SSW 9 16 1018.2 - 0.0 - Partly cloudy 10 - - - -
03/12:30pm 19.5 SSW 9 13 1018.5 - 0.0 - Partly cloudy 10 - - - -
03/12:00pm 19.9 S 7 11 1018.6 - 0.0 - Partly cloudy 10 - - - -
03/11:30am 19.3 WSW 9 13 1018.6 - 0.0 - Partly cloudy 10 - - - -
03/11:00am 18.6 SSW 8 11 1018.6 - 0.0 - Partly cloudy 10 - - - -
03/10:30am 17.3 SSW 6 10 1018.5 - 0.0 - Partly cloudy 10 - - - -
03/10:00am 17.3 SSE 4 8 1018.3 - 0.0 - Partly cloudy 10 - - - -
03/09:30am 15.6 CALM 0 0 1018.3 - 0.0 - Partly cloudy 10 - - - -
03/09:00am 13.9 NW 1 4 1018.0 - 0.0 - Mostly clear 10 - - - -
03/08:30am 13.1 NNW 2 4 1017.8 - 0.0 - Partly cloudy 10 - - - -
03/08:00am 10.8 NNW 4 5 1017.8 - 0.0 - Partly cloudy 10 - - - -
03/07:30am 8.7 NW 4 5 1017.3 - 0.0 - Partly cloudy 10 - - - -
03/07:00am 9.1 NW 4 5 1016.9 - 0.0 - - 10 - - - -
03/06:30am 9.0 WNW 3 3 1016.6 - 0.0 - - 10 - - - -
03/06:29am 9.2 WNW 3 3 1016.5 - 0.0 - - 10 - - - -
03/06:11am 9.1 WNW 4 4 1016.4 - 0.0 - - 5 - - - -
03/06:00am 8.7 WNW 4 5 1016.3 - 0.0 - Mostly clear 10 - - - -
03/05:30am 9.8 NW 4 5 1016.4 - 0.0 - - 10 - - - -
03/05:00am 10.0 WNW 3 5 1016.2 - 0.0 - Partly cloudy 10 - - - -
03/04:30am 10.0 NW 4 4 1015.9 - 0.0 - - 10 - - - -
03/04:00am 10.0 WNW 4 5 1016.1 - 0.0 - - 10 - - - -
03/03:30am 10.2 W 2 4 1016.3 - 0.0 - - 10 - - - -
03/03:00am 10.5 CALM 0 0 1016.5 - 0.0 - Partly cloudy 10 - - - -
03/02:30am 11.2 W 3 3 1016.7 - 0.0 - - 10 - - - -
03/02:00am 11.5 WSW 3 4 1016.8 - 0.0 - - 10 - - - -
03/01:30am 12.0 SW 1 3 1017.0 - 0.0 - - 10 - - - -
03/01:00am 12.3 S 2 4 1017.1 - 0.0 - - 10 - - - -
03/12:30am 12.9 S 4 5 1017.0 - 0.0 - - 10 - - - -
03/12:00am 13.4 S 5 6 1016.7 - 0.0 - Cloudy 10 - - - -
 
Date/Time
EDT
Temp

°C
Wind Pressure Rain
since 9am
mm
Weather Cloud Vis
km
Sea
Height
m
Swell
Dir
 
Speed
knots
Gust
knots
hPa Trend Height
m
Period
s
Dir
02/11:30pm 13.4 SSW 5 6 1016.9 - 0.0 - - 10 - - - -
02/11:00pm 13.5 S 3 4 1016.7 - 0.0 - - 10 - - - -
02/10:30pm 13.9 S 3 4 1016.8 - 0.0 - - 10 - - - -
02/10:00pm 14.4 S 4 4 1016.6 - 0.0 - - 10 - - - -
02/09:30pm 14.5 S 3 4 1016.4 - 0.0 - - 10 - - - -
02/09:00pm 14.9 SSW 5 6 1016.1 - 0.0 - Cloudy 10 - - - -
02/08:30pm 15.3 S 5 5 1015.7 - 0.0 - - 10 - - - -
02/08:00pm 16.0 S 6 7 1015.5 - 0.0 - - 10 - - - -
02/07:30pm 16.5 S 9 11 1015.4 - 0.0 - - 10 - - - -
02/07:00pm 17.1 SSW 12 14 1015.7 - 0.0 - - 10 - - - -
02/06:30pm 17.6 SSW 13 17 1015.3 - 0.0 - - 10 - - - -
02/06:00pm 18.1 SSW 14 19 1014.9 - 0.0 - Mostly cloudy 10 - - - -
02/05:30pm 18.8 SW 15 19 1014.5 - 0.0 - - 10 - - - -
02/05:00pm 19.3 SSW 17 20 1014.1 - 0.0 - - 10 - - - -
02/04:30pm 20.7 SSW 17 20 1014.2 - 0.0 - - 10 - - - -
02/04:00pm 21.8 SW 18 21 1014.0 - 0.0 - - 10 - - - -
02/03:30pm 23.4 SW 12 17 1014.2 - 0.0 - - 10 - - - -
02/03:00pm 24.5 WSW 5 11 1014.6 - 0.0 - Mostly cloudy 10 - - - -
02/02:30pm 23.9 S 5 10 1014.4 - 0.0 - - 10 - - - -
02/02:00pm 23.6 NNW 7 11 1015.1 - 0.0 - - 10 - - - -

Other Formats:

Comma delimited format used in spreadsheet applications
http://www.bom.gov.au/fwo/IDV60701/IDV60701.94837.axf

JavaScript Object Notation format (JSON) in row-major order
http://www.bom.gov.au/fwo/IDV60701/IDV60701.94837.json